sensor_id;sensor_type;location;lat;lon;timestamp;pressure;altitude;pressure_sealevel;temperature;humidity
74680;BME280;63211;48.548;2.704;2023-11-22T00:02:07;101614.59;;;18.83;65.96
74680;BME280;63211;48.548;2.704;2023-11-22T00:04:33;101619.66;;;18.86;66.22
74680;BME280;63211;48.548;2.704;2023-11-22T00:07:00;101634.97;;;18.87;66.21
74680;BME280;63211;48.548;2.704;2023-11-22T00:09:28;101628.03;;;18.84;65.99
74680;BME280;63211;48.548;2.704;2023-11-22T00:11:54;101637.28;;;18.83;66.55
74680;BME280;63211;48.548;2.704;2023-11-22T00:14:21;101633.06;;;18.81;66.23
74680;BME280;63211;48.548;2.704;2023-11-22T00:16:47;101637.88;;;18.79;66.40
74680;BME280;63211;48.548;2.704;2023-11-22T00:19:14;101636.59;;;18.75;66.89
74680;BME280;63211;48.548;2.704;2023-11-22T00:21:43;101630.75;;;18.78;66.45
74680;BME280;63211;48.548;2.704;2023-11-22T00:24:10;101633.91;;;18.81;66.25
74680;BME280;63211;48.548;2.704;2023-11-22T00:26:37;101637.50;;;18.88;65.03
74680;BME280;63211;48.548;2.704;2023-11-22T00:29:04;101633.09;;;18.94;65.48
74680;BME280;63211;48.548;2.704;2023-11-22T00:31:31;101633.50;;;18.98;64.50
74680;BME280;63211;48.548;2.704;2023-11-22T00:33:58;101642.34;;;19.06;64.23
74680;BME280;63211;48.548;2.704;2023-11-22T00:36:24;101641.75;;;19.11;62.75
74680;BME280;63211;48.548;2.704;2023-11-22T00:38:51;101640.25;;;19.08;61.62
74680;BME280;63211;48.548;2.704;2023-11-22T00:41:17;101635.84;;;19.14;61.40
74680;BME280;63211;48.548;2.704;2023-11-22T00:43:45;101642.16;;;19.14;61.27
74680;BME280;63211;48.548;2.704;2023-11-22T00:46:12;101629.97;;;19.17;61.39
74680;BME280;63211;48.548;2.704;2023-11-22T00:48:39;101638.78;;;19.19;61.15
74680;BME280;63211;48.548;2.704;2023-11-22T00:51:05;101640.28;;;19.21;61.78
74680;BME280;63211;48.548;2.704;2023-11-22T00:53:34;101631.25;;;19.21;63.65
74680;BME280;63211;48.548;2.704;2023-11-22T00:56:02;101638.78;;;19.19;64.18
74680;BME280;63211;48.548;2.704;2023-11-22T00:58:29;101631.03;;;19.09;64.21
74680;BME280;63211;48.548;2.704;2023-11-22T01:00:57;101647.59;;;19.01;64.70
74680;BME280;63211;48.548;2.704;2023-11-22T01:03:23;101646.75;;;19.01;64.95
74680;BME280;63211;48.548;2.704;2023-11-22T01:05:50;101645.47;;;18.97;64.94
74680;BME280;63211;48.548;2.704;2023-11-22T01:08:17;101638.97;;;18.91;65.28
74680;BME280;63211;48.548;2.704;2023-11-22T01:10:44;101657.63;;;18.94;65.14
74680;BME280;63211;48.548;2.704;2023-11-22T01:13:11;101649.91;;;18.91;65.26
74680;BME280;63211;48.548;2.704;2023-11-22T01:15:40;101658.28;;;18.90;65.06
74680;BME280;63211;48.548;2.704;2023-11-22T01:18:08;101656.81;;;18.87;64.99
74680;BME280;63211;48.548;2.704;2023-11-22T01:20:35;101657.84;;;18.86;65.06
74680;BME280;63211;48.548;2.704;2023-11-22T01:23:01;101643.13;;;18.80;65.27
74680;BME280;63211;48.548;2.704;2023-11-22T01:25:28;101645.66;;;18.82;65.31
74680;BME280;63211;48.548;2.704;2023-11-22T01:27:54;101653.00;;;18.81;65.10
74680;BME280;63211;48.548;2.704;2023-11-22T01:30:21;101628.81;;;18.65;65.39
74680;BME280;63211;48.548;2.704;2023-11-22T01:32:47;101652.78;;;18.76;65.50
74680;BME280;63211;48.548;2.704;2023-11-22T01:35:16;101662.84;;;18.76;65.56
74680;BME280;63211;48.548;2.704;2023-11-22T01:37:42;101662.00;;;18.75;64.96
74680;BME280;63211;48.548;2.704;2023-11-22T01:40:10;101671.06;;;18.82;64.69
74680;BME280;63211;48.548;2.704;2023-11-22T01:42:37;101675.69;;;18.88;63.92
74680;BME280;63211;48.548;2.704;2023-11-22T01:45:06;101682.63;;;18.98;63.63
74680;BME280;63211;48.548;2.704;2023-11-22T01:47:32;101682.03;;;19.02;62.87
74680;BME280;63211;48.548;2.704;2023-11-22T01:50:00;101687.91;;;19.06;62.02
74680;BME280;63211;48.548;2.704;2023-11-22T01:52:28;101684.78;;;19.09;61.22
74680;BME280;63211;48.548;2.704;2023-11-22T01:54:55;101692.75;;;19.10;61.31
74680;BME280;63211;48.548;2.704;2023-11-22T01:57:22;101687.50;;;19.09;61.10
74680;BME280;63211;48.548;2.704;2023-11-22T01:59:48;101706.41;;;19.17;61.51
74680;BME280;63211;48.548;2.704;2023-11-22T02:02:15;101699.91;;;19.18;61.35
74680;BME280;63211;48.548;2.704;2023-11-22T02:04:42;101673.41;;;18.99;61.55
74680;BME280;63211;48.548;2.704;2023-11-22T02:07:08;101704.31;;;19.19;61.01
74680;BME280;63211;48.548;2.704;2023-11-22T02:09:37;101707.47;;;19.16;61.60
74680;BME280;63211;48.548;2.704;2023-11-22T02:12:03;101721.34;;;19.21;62.49
74680;BME280;63211;48.548;2.704;2023-11-22T02:14:30;101710.63;;;19.19;62.84
74680;BME280;63211;48.548;2.704;2023-11-22T02:16:57;101712.06;;;19.15;63.32
74680;BME280;63211;48.548;2.704;2023-11-22T02:19:24;101718.19;;;19.11;63.63
74680;BME280;63211;48.548;2.704;2023-11-22T02:21:50;101714.16;;;19.07;63.85
74680;BME280;63211;48.548;2.704;2023-11-22T02:24:18;101710.38;;;19.01;64.25
74680;BME280;63211;48.548;2.704;2023-11-22T02:26:45;101712.44;;;18.99;64.32
74680;BME280;63211;48.548;2.704;2023-11-22T02:29:12;101718.31;;;18.96;64.35
74680;BME280;63211;48.548;2.704;2023-11-22T02:31:40;101711.38;;;18.94;64.49
74680;BME280;63211;48.548;2.704;2023-11-22T02:34:07;101720.59;;;18.93;64.65
74680;BME280;63211;48.548;2.704;2023-11-22T02:36:34;101714.09;;;18.87;64.57
74680;BME280;63211;48.548;2.704;2023-11-22T02:39:00;101719.34;;;18.88;64.45
74680;BME280;63211;48.548;2.704;2023-11-22T02:41:29;101722.94;;;18.89;64.44
74680;BME280;63211;48.548;2.704;2023-11-22T02:43:56;101722.28;;;18.87;64.69
74680;BME280;63211;48.548;2.704;2023-11-22T02:46:22;101723.34;;;18.86;64.72
74680;BME280;63211;48.548;2.704;2023-11-22T02:48:49;101722.91;;;18.82;64.57
74680;BME280;63211;48.548;2.704;2023-11-22T02:51:16;101721.22;;;18.81;64.81
74680;BME280;63211;48.548;2.704;2023-11-22T02:53:43;101724.78;;;18.82;64.43
74680;BME280;63211;48.548;2.704;2023-11-22T02:56:11;101725.63;;;18.82;64.74
74680;BME280;63211;48.548;2.704;2023-11-22T02:58:39;101726.50;;;18.90;63.90
74680;BME280;63211;48.548;2.704;2023-11-22T03:01:06;101726.31;;;18.98;62.95
74680;BME280;63211;48.548;2.704;2023-11-22T03:03:32;101723.16;;;19.01;61.85
74680;BME280;63211;48.548;2.704;2023-11-22T03:05:59;101742.31;;;19.07;61.70
74680;BME280;63211;48.548;2.704;2023-11-22T03:08:26;101737.69;;;19.08;61.25
74680;BME280;63211;48.548;2.704;2023-11-22T03:10:53;101746.09;;;19.13;61.38
74680;BME280;63211;48.548;2.704;2023-11-22T03:13:19;101745.47;;;19.17;61.17
74680;BME280;63211;48.548;2.704;2023-11-22T03:15:47;101752.63;;;19.18;61.18
74680;BME280;63211;48.548;2.704;2023-11-22T03:18:14;101752.41;;;19.20;60.95
74680;BME280;63211;48.548;2.704;2023-11-22T03:20:41;101746.94;;;19.20;61.15
74680;BME280;63211;48.548;2.704;2023-11-22T03:23:08;101750.31;;;19.22;61.31
74680;BME280;63211;48.548;2.704;2023-11-22T03:25:36;101744.44;;;19.18;61.14
74680;BME280;63211;48.548;2.704;2023-11-22T03:28:02;101748.44;;;19.22;61.12
74680;BME280;63211;48.548;2.704;2023-11-22T03:30:29;101749.28;;;19.23;61.91
74680;BME280;63211;48.548;2.704;2023-11-22T03:32:58;101757.47;;;19.23;62.57
74680;BME280;63211;48.548;2.704;2023-11-22T03:35:24;101734.13;;;19.14;62.76
74680;BME280;63211;48.548;2.704;2023-11-22T03:37:51;101740.22;;;19.16;62.96
74680;BME280;63211;48.548;2.704;2023-11-22T03:40:17;101744.84;;;19.15;63.16
74680;BME280;63211;48.548;2.704;2023-11-22T03:42:45;101748.16;;;19.04;63.45
74680;BME280;63211;48.548;2.704;2023-11-22T03:45:11;101748.38;;;19.03;63.67
74680;BME280;63211;48.548;2.704;2023-11-22T03:47:39;101758.88;;;19.06;63.80
74680;BME280;63211;48.548;2.704;2023-11-22T03:50:07;101767.47;;;19.03;64.07
74680;BME280;63211;48.548;2.704;2023-11-22T03:52:35;101767.03;;;18.99;63.99
74680;BME280;63211;48.548;2.704;2023-11-22T03:55:01;101769.13;;;18.91;64.42
74680;BME280;63211;48.548;2.704;2023-11-22T03:57:29;101787.59;;;18.95;64.43
74680;BME280;63211;48.548;2.704;2023-11-22T03:59:55;101788.00;;;18.92;64.00
74680;BME280;63211;48.548;2.704;2023-11-22T04:02:22;101787.38;;;18.90;64.36
74680;BME280;63211;48.548;2.704;2023-11-22T04:04:48;101793.88;;;18.89;64.14
74680;BME280;63211;48.548;2.704;2023-11-22T04:07:16;101797.44;;;18.90;64.13
74680;BME280;63211;48.548;2.704;2023-11-22T04:09:44;101789.22;;;18.83;64.39
74680;BME280;63211;48.548;2.704;2023-11-22T04:12:10;101801.81;;;18.84;64.08
74680;BME280;63211;48.548;2.704;2023-11-22T04:14:37;101800.56;;;18.86;64.19
74680;BME280;63211;48.548;2.704;2023-11-22T04:17:04;101809.81;;;18.92;63.26
74680;BME280;63211;48.548;2.704;2023-11-22T04:19:31;101820.38;;;19.02;62.18
74680;BME280;63211;48.548;2.704;2023-11-22T04:21:57;101816.22;;;19.06;61.14
74680;BME280;63211;48.548;2.704;2023-11-22T04:24:25;101813.72;;;19.11;61.26
74680;BME280;63211;48.548;2.704;2023-11-22T04:26:52;101825.88;;;19.15;61.21
74680;BME280;63211;48.548;2.704;2023-11-22T04:29:18;101808.47;;;19.16;61.02
74680;BME280;63211;48.548;2.704;2023-11-22T04:31:45;101809.75;;;19.20;61.18
74680;BME280;63211;48.548;2.704;2023-11-22T04:34:12;101810.59;;;19.20;60.90
74680;BME280;63211;48.548;2.704;2023-11-22T04:36:38;101812.28;;;19.21;60.69
74680;BME280;63211;48.548;2.704;2023-11-22T04:39:05;101816.69;;;19.22;61.35
74680;BME280;63211;48.548;2.704;2023-11-22T04:41:33;101803.88;;;19.23;60.95
74680;BME280;63211;48.548;2.704;2023-11-22T04:44:00;101816.09;;;19.27;61.00
74680;BME280;63211;48.548;2.704;2023-11-22T04:46:27;101826.16;;;19.27;60.79
74680;BME280;63211;48.548;2.704;2023-11-22T04:48:54;101821.75;;;19.26;60.54
74680;BME280;63211;48.548;2.704;2023-11-22T04:51:21;101838.13;;;19.26;61.14
74680;BME280;63211;48.548;2.704;2023-11-22T04:53:47;101834.56;;;19.25;61.77
74680;BME280;63211;48.548;2.704;2023-11-22T04:56:14;101832.88;;;19.24;62.37
74680;BME280;63211;48.548;2.704;2023-11-22T04:58:43;101843.16;;;19.22;62.53
74680;BME280;63211;48.548;2.704;2023-11-22T05:01:09;101827.13;;;19.06;62.77
74680;BME280;63211;48.548;2.704;2023-11-22T05:03:36;101854.88;;;19.16;62.61
74680;BME280;63211;48.548;2.704;2023-11-22T05:06:03;101870.41;;;19.15;62.68
74680;BME280;63211;48.548;2.704;2023-11-22T05:08:30;101858.84;;;19.07;62.96
74680;BME280;63211;48.548;2.704;2023-11-22T05:10:56;101884.03;;;19.09;63.28
74680;BME280;63211;48.548;2.704;2023-11-22T05:13:24;101889.91;;;19.06;63.33
74680;BME280;63211;48.548;2.704;2023-11-22T05:15:52;101891.34;;;19.02;63.31
74680;BME280;63211;48.548;2.704;2023-11-22T05:18:18;101895.31;;;18.99;63.61
74680;BME280;63211;48.548;2.704;2023-11-22T05:20:45;101902.00;;;18.97;63.64
74680;BME280;63211;48.548;2.704;2023-11-22T05:23:13;101900.53;;;18.94;63.85
74680;BME280;63211;48.548;2.704;2023-11-22T05:25:40;101892.72;;;18.84;63.60
74680;BME280;63211;48.548;2.704;2023-11-22T05:28:06;101902.78;;;18.84;64.06
74680;BME280;63211;48.548;2.704;2023-11-22T05:30:33;101917.53;;;18.90;63.91
74680;BME280;63211;48.548;2.704;2023-11-22T05:33:01;101915.00;;;18.88;63.53
74680;BME280;63211;48.548;2.704;2023-11-22T05:35:28;101926.78;;;18.95;63.00
74680;BME280;63211;48.548;2.704;2023-11-22T05:37:54;101931.44;;;19.01;62.35
74680;BME280;63211;48.548;2.704;2023-11-22T05:40:22;101930.66;;;19.07;61.55
74680;BME280;63211;48.548;2.704;2023-11-22T05:42:49;101930.06;;;19.12;60.94
74680;BME280;63211;48.548;2.704;2023-11-22T05:45:15;101928.59;;;19.16;60.77
74680;BME280;63211;48.548;2.704;2023-11-22T05:47:42;101933.59;;;19.12;60.27
74680;BME280;63211;48.548;2.704;2023-11-22T05:50:10;101948.97;;;19.20;60.24
74680;BME280;63211;48.548;2.704;2023-11-22T05:52:37;101948.78;;;19.21;60.36
74680;BME280;63211;48.548;2.704;2023-11-22T05:55:05;101944.38;;;19.20;59.57
74680;BME280;63211;48.548;2.704;2023-11-22T05:57:33;101956.97;;;19.21;60.44
74680;BME280;63211;48.548;2.704;2023-11-22T06:00:00;101956.78;;;19.23;60.10
74680;BME280;63211;48.548;2.704;2023-11-22T06:02:26;101965.41;;;19.27;60.95
74680;BME280;63211;48.548;2.704;2023-11-22T06:04:53;101968.16;;;19.27;59.78
74680;BME280;63211;48.548;2.704;2023-11-22T06:07:21;101964.78;;;19.25;59.76
74680;BME280;63211;48.548;2.704;2023-11-22T06:09:47;101970.44;;;19.23;59.85
74680;BME280;63211;48.548;2.704;2023-11-22T06:12:14;101982.84;;;19.26;59.73
74680;BME280;63211;48.548;2.704;2023-11-22T06:14:41;101982.63;;;19.27;60.71
74680;BME280;63211;48.548;2.704;2023-11-22T06:17:07;101969.84;;;19.28;60.82
74680;BME280;63211;48.548;2.704;2023-11-22T06:19:34;101966.84;;;19.22;61.26
74680;BME280;63211;48.548;2.704;2023-11-22T06:22:00;101973.56;;;19.20;61.55
74680;BME280;63211;48.548;2.704;2023-11-22T06:24:28;101981.09;;;19.18;61.99
74680;BME280;63211;48.548;2.704;2023-11-22T06:26:56;101986.56;;;19.18;61.80
74680;BME280;63211;48.548;2.704;2023-11-22T06:29:22;101989.50;;;19.16;61.88
74680;BME280;63211;48.548;2.704;2023-11-22T06:31:49;101983.56;;;19.13;61.99
74680;BME280;63211;48.548;2.704;2023-11-22T06:34:16;101992.00;;;19.11;61.90
74680;BME280;63211;48.548;2.704;2023-11-22T06:36:42;101989.00;;;19.06;62.08
74680;BME280;63211;48.548;2.704;2023-11-22T06:39:09;101997.84;;;19.08;61.86
74680;BME280;63211;48.548;2.704;2023-11-22T06:41:40;101999.94;;;19.06;62.40
74680;BME280;63211;48.548;2.704;2023-11-22T06:44:07;102008.72;;;19.02;62.16
74680;BME280;63211;48.548;2.704;2023-11-22T06:46:33;102006.75;;;18.96;62.59
74680;BME280;63211;48.548;2.704;2023-11-22T06:49:00;102019.16;;;18.98;62.27
74680;BME280;63211;48.548;2.704;2023-11-22T06:51:26;102022.28;;;18.95;62.44
74680;BME280;63211;48.548;2.704;2023-11-22T06:53:53;102021.72;;;19.00;62.18
74680;BME280;63211;48.548;2.704;2023-11-22T06:56:20;102026.78;;;19.03;61.96
74680;BME280;63211;48.548;2.704;2023-11-22T06:58:47;102024.94;;;19.10;61.75
74680;BME280;63211;48.548;2.704;2023-11-22T07:01:14;102030.81;;;19.13;61.49
74680;BME280;63211;48.548;2.704;2023-11-22T07:03:41;102030.63;;;19.15;61.70
74680;BME280;63211;48.548;2.704;2023-11-22T07:06:07;102037.59;;;19.17;61.67
74680;BME280;63211;48.548;2.704;2023-11-22T07:08:35;102027.31;;;19.19;61.61
74680;BME280;63211;48.548;2.704;2023-11-22T07:11:01;102027.13;;;19.21;61.71
74680;BME280;63211;48.548;2.704;2023-11-22T07:13:28;102035.31;;;19.21;62.00
74680;BME280;63211;48.548;2.704;2023-11-22T07:15:56;102019.56;;;19.23;61.40
74680;BME280;63211;48.548;2.704;2023-11-22T07:18:23;102026.53;;;19.26;61.17
74680;BME280;63211;48.548;2.704;2023-11-22T07:20:50;102024.63;;;19.26;60.84
74680;BME280;63211;48.548;2.704;2023-11-22T07:23:18;102038.09;;;19.28;60.41
74680;BME280;63211;48.548;2.704;2023-11-22T07:25:46;102049.22;;;19.26;60.11
74680;BME280;63211;48.548;2.704;2023-11-22T07:28:13;102048.38;;;19.26;59.63
74680;BME280;63211;48.548;2.704;2023-11-22T07:30:39;102057.22;;;19.28;60.24
74680;BME280;63211;48.548;2.704;2023-11-22T07:33:08;102068.34;;;19.26;60.43
74680;BME280;63211;48.548;2.704;2023-11-22T07:35:36;102062.22;;;19.24;60.90
74680;BME280;63211;48.548;2.704;2023-11-22T07:38:04;102080.09;;;19.27;61.07
74680;BME280;63211;48.548;2.704;2023-11-22T07:40:33;102075.69;;;19.26;61.38
74680;BME280;63211;48.548;2.704;2023-11-22T07:43:00;102083.22;;;19.23;61.43
74680;BME280;63211;48.548;2.704;2023-11-22T07:45:27;102088.41;;;19.18;61.58
74680;BME280;63211;48.548;2.704;2023-11-22T07:47:54;102090.31;;;19.18;61.49
74680;BME280;63211;48.548;2.704;2023-11-22T07:50:24;102088.81;;;19.15;61.59
74680;BME280;63211;48.548;2.704;2023-11-22T07:52:51;102103.69;;;19.13;61.58
74680;BME280;63211;48.548;2.704;2023-11-22T07:55:17;102126.81;;;19.10;61.51
74680;BME280;63211;48.548;2.704;2023-11-22T07:57:44;102122.13;;;19.04;61.86
74680;BME280;63211;48.548;2.704;2023-11-22T08:00:12;102122.97;;;19.05;61.48
74680;BME280;63211;48.548;2.704;2023-11-22T08:02:39;102119.97;;;19.00;61.79
74680;BME280;63211;48.548;2.704;2023-11-22T08:05:08;102113.41;;;18.94;61.52
74680;BME280;63211;48.548;2.704;2023-11-22T08:07:36;102118.47;;;18.97;61.98
74680;BME280;63211;48.548;2.704;2023-11-22T08:10:06;102115.28;;;18.94;61.74
74680;BME280;63211;48.548;2.704;2023-11-22T08:12:35;102112.63;;;19.00;61.77
74680;BME280;63211;48.548;2.704;2023-11-22T08:15:03;102104.50;;;19.07;60.69
74680;BME280;63211;48.548;2.704;2023-11-22T08:17:30;102102.22;;;19.10;59.87
74680;BME280;63211;48.548;2.704;2023-11-22T08:19:57;102114.41;;;19.14;59.33
74680;BME280;63211;48.548;2.704;2023-11-22T08:22:24;102110.41;;;19.10;58.94
74680;BME280;63211;48.548;2.704;2023-11-22T08:24:54;102116.31;;;19.14;58.90
74680;BME280;63211;48.548;2.704;2023-11-22T08:27:22;102109.81;;;19.15;58.76
74680;BME280;63211;48.548;2.704;2023-11-22T08:29:49;102128.34;;;19.19;59.20
74680;BME280;63211;48.548;2.704;2023-11-22T08:32:15;102131.66;;;19.15;59.43
74680;BME280;63211;48.548;2.704;2023-11-22T08:34:43;102132.94;;;19.19;59.44
74680;BME280;63211;48.548;2.704;2023-11-22T08:37:10;102132.75;;;19.20;59.94
74680;BME280;63211;48.548;2.704;2023-11-22T08:39:37;102135.28;;;19.22;59.65
74680;BME280;63211;48.548;2.704;2023-11-22T08:42:05;102112.97;;;19.12;59.01
74680;BME280;63211;48.548;2.704;2023-11-22T08:44:34;102126.06;;;19.23;58.78
74680;BME280;63211;48.548;2.704;2023-11-22T08:47:01;102146.03;;;19.23;58.60
74680;BME280;63211;48.548;2.704;2023-11-22T08:49:28;102140.75;;;19.22;58.57
74680;BME280;63211;48.548;2.704;2023-11-22T08:51:55;102152.31;;;19.24;59.33
74680;BME280;63211;48.548;2.704;2023-11-22T08:54:24;102156.75;;;19.25;59.66
74680;BME280;63211;48.548;2.704;2023-11-22T08:56:53;102144.13;;;19.24;60.00
74680;BME280;63211;48.548;2.704;2023-11-22T08:59:22;102144.53;;;19.21;60.38
74680;BME280;63211;48.548;2.704;2023-11-22T09:01:49;102148.28;;;19.20;60.31
74680;BME280;63211;48.548;2.704;2023-11-22T09:04:15;102142.19;;;19.18;59.98
74680;BME280;63211;48.548;2.704;2023-11-22T09:06:43;102140.56;;;19.02;60.70
74680;BME280;63211;48.548;2.704;2023-11-22T09:09:12;102156.41;;;19.13;60.78
74680;BME280;63211;48.548;2.704;2023-11-22T09:11:40;102102.16;;;18.82;60.50
74680;BME280;63211;48.548;2.704;2023-11-22T09:14:07;102153.25;;;19.10;60.49
74680;BME280;63211;48.548;2.704;2023-11-22T09:16:37;102145.44;;;19.07;60.41
74680;BME280;63211;48.548;2.704;2023-11-22T09:19:04;102154.22;;;19.02;60.74
74680;BME280;63211;48.548;2.704;2023-11-22T09:21:31;102166.38;;;19.00;60.53
74680;BME280;63211;48.548;2.704;2023-11-22T09:23:58;102168.25;;;18.99;60.47
74680;BME280;63211;48.548;2.704;2023-11-22T09:26:25;102178.69;;;18.96;61.59
74680;BME280;63211;48.548;2.704;2023-11-22T09:28:51;102182.09;;;18.98;60.82
74680;BME280;63211;48.548;2.704;2023-11-22T09:31:19;102194.78;;;19.05;60.40
74680;BME280;63211;48.548;2.704;2023-11-22T09:33:47;102195.63;;;19.06;59.30
74680;BME280;63211;48.548;2.704;2023-11-22T09:36:15;102176.34;;;18.93;58.79
74680;BME280;63211;48.548;2.704;2023-11-22T09:38:43;102195.44;;;19.07;58.45
74680;BME280;63211;48.548;2.704;2023-11-22T09:41:10;102205.78;;;19.12;58.68
74680;BME280;63211;48.548;2.704;2023-11-22T09:43:37;102207.25;;;19.14;58.04
74680;BME280;63211;48.548;2.704;2023-11-22T09:46:05;102209.78;;;19.16;58.24
74680;BME280;63211;48.548;2.704;2023-11-22T09:48:36;102193.41;;;19.16;57.87
74680;BME280;63211;48.548;2.704;2023-11-22T09:51:17;102197.81;;;19.17;58.09
74680;BME280;63211;48.548;2.704;2023-11-22T09:53:52;102205.44;;;19.21;59.21
74680;BME280;63211;48.548;2.704;2023-11-22T09:56:19;102211.38;;;19.25;59.05
74680;BME280;63211;48.548;2.704;2023-11-22T09:58:48;102196.22;;;19.22;59.07
74680;BME280;63211;48.548;2.704;2023-11-22T10:01:20;102206.34;;;19.29;59.17
74680;BME280;63211;48.548;2.704;2023-11-22T10:03:47;102200.91;;;19.29;59.07
74680;BME280;63211;48.548;2.704;2023-11-22T10:06:15;102204.47;;;19.29;59.23
74680;BME280;63211;48.548;2.704;2023-11-22T10:08:43;102211.63;;;19.30;58.82
74680;BME280;63211;48.548;2.704;2023-11-22T10:11:12;102208.44;;;19.27;58.85
74680;BME280;63211;48.548;2.704;2023-11-22T10:13:41;102209.09;;;19.29;58.83
74680;BME280;63211;48.548;2.704;2023-11-22T10:16:10;102217.09;;;19.30;59.07
74680;BME280;63211;48.548;2.704;2023-11-22T10:18:39;102219.81;;;19.30;58.78
74680;BME280;63211;48.548;2.704;2023-11-22T10:21:20;102210.78;;;19.30;58.64
74680;BME280;63211;48.548;2.704;2023-11-22T10:23:47;102220.22;;;19.27;58.69
74680;BME280;63211;48.548;2.704;2023-11-22T10:26:14;102214.88;;;19.19;58.60
74680;BME280;63211;48.548;2.704;2023-11-22T10:28:41;102226.16;;;19.16;58.66
74680;BME280;63211;48.548;2.704;2023-11-22T10:31:09;102224.66;;;19.13;58.20
74680;BME280;63211;48.548;2.704;2023-11-22T10:33:39;102213.31;;;19.10;58.66
74680;BME280;63211;48.548;2.704;2023-11-22T10:36:06;102187.69;;;18.90;58.40
74680;BME280;63211;48.548;2.704;2023-11-22T10:38:35;102220.19;;;19.06;58.53
74680;BME280;63211;48.548;2.704;2023-11-22T10:41:03;102224.81;;;19.05;58.58
74680;BME280;63211;48.548;2.704;2023-11-22T10:43:31;102231.13;;;19.06;58.77
74680;BME280;63211;48.548;2.704;2023-11-22T10:45:58;102237.78;;;19.03;59.14
74680;BME280;63211;48.548;2.704;2023-11-22T10:48:25;102235.72;;;19.05;59.23
74680;BME280;63211;48.548;2.704;2023-11-22T10:50:53;102228.94;;;19.01;58.79
74680;BME280;63211;48.548;2.704;2023-11-22T10:53:21;102222.91;;;19.06;57.91
74680;BME280;63211;48.548;2.704;2023-11-22T10:55:57;102223.38;;;19.09;58.05
74680;BME280;63211;48.548;2.704;2023-11-22T10:58:27;102219.63;;;19.10;57.68
74680;BME280;63211;48.548;2.704;2023-11-22T11:00:54;102216.69;;;19.12;57.45
74680;BME280;63211;48.548;2.704;2023-11-22T11:03:23;102206.81;;;19.11;57.38
74680;BME280;63211;48.548;2.704;2023-11-22T11:05:57;102205.97;;;19.10;57.00
74680;BME280;63211;48.548;2.704;2023-11-22T11:08:25;102203.25;;;19.10;56.93
74680;BME280;63211;48.548;2.704;2023-11-22T11:10:54;102193.16;;;19.11;57.31
74680;BME280;63211;48.548;2.704;2023-11-22T11:13:21;102188.75;;;19.10;57.18
74680;BME280;63211;48.548;2.704;2023-11-22T11:15:49;102195.25;;;19.09;57.09
74680;BME280;63211;48.548;2.704;2023-11-22T11:18:17;102194.59;;;19.07;57.22
74680;BME280;63211;48.548;2.704;2023-11-22T11:20:45;102187.81;;;19.03;57.71
74680;BME280;63211;48.548;2.704;2023-11-22T11:23:13;102198.53;;;19.04;56.80
74680;BME280;63211;48.548;2.704;2023-11-22T11:25:41;102190.09;;;18.99;56.76
74680;BME280;63211;48.548;2.704;2023-11-22T11:28:11;102197.25;;;19.00;56.93
74680;BME280;63211;48.548;2.704;2023-11-22T11:30:46;102203.53;;;19.01;56.88
74680;BME280;63211;48.548;2.704;2023-11-22T11:33:14;102195.09;;;18.96;57.04
74680;BME280;63211;48.548;2.704;2023-11-22T11:35:43;102188.25;;;18.85;57.15
74680;BME280;63211;48.548;2.704;2023-11-22T11:38:12;102211.47;;;18.96;57.42
74680;BME280;63211;48.548;2.704;2023-11-22T11:40:40;102200.28;;;18.91;57.57
74680;BME280;63211;48.548;2.704;2023-11-22T11:43:06;102212.88;;;18.92;57.68
74680;BME280;63211;48.548;2.704;2023-11-22T11:45:37;102213.94;;;18.91;57.28
74680;BME280;63211;48.548;2.704;2023-11-22T11:48:05;102201.34;;;18.90;57.39
74680;BME280;63211;48.548;2.704;2023-11-22T11:50:31;102199.63;;;18.88;57.49
74680;BME280;63211;48.548;2.704;2023-11-22T11:52:57;102194.38;;;18.87;57.13
74680;BME280;63211;48.548;2.704;2023-11-22T11:55:25;102191.84;;;18.85;57.32
74680;BME280;63211;48.548;2.704;2023-11-22T11:57:53;102184.69;;;18.84;57.31
74680;BME280;63211;48.548;2.704;2023-11-22T12:00:20;102188.25;;;18.85;57.00
74680;BME280;63211;48.548;2.704;2023-11-22T12:02:50;102188.91;;;18.87;57.69
74680;BME280;63211;48.548;2.704;2023-11-22T12:05:19;102196.06;;;18.88;57.26
74680;BME280;63211;48.548;2.704;2023-11-22T12:07:46;102194.19;;;18.88;57.07
74680;BME280;63211;48.548;2.704;2023-11-22T12:10:12;102199.44;;;18.90;56.28
74680;BME280;63211;48.548;2.704;2023-11-22T12:12:39;102190.66;;;18.95;56.20
74680;BME280;63211;48.548;2.704;2023-11-22T12:15:08;102189.44;;;18.97;55.74
74680;BME280;63211;48.548;2.704;2023-11-22T12:17:35;102173.44;;;18.94;55.59
74680;BME280;63211;48.548;2.704;2023-11-22T12:20:11;102177.28;;;19.00;55.99
74680;BME280;63211;48.548;2.704;2023-11-22T12:22:39;102177.75;;;19.03;55.84
74680;BME280;63211;48.548;2.704;2023-11-22T12:25:07;102185.94;;;19.03;55.74
74680;BME280;63211;48.548;2.704;2023-11-22T12:27:33;102185.75;;;19.05;55.79
74680;BME280;63211;48.548;2.704;2023-11-22T12:30:00;102189.50;;;19.04;55.99
74680;BME280;63211;48.548;2.704;2023-11-22T12:32:26;102187.81;;;19.03;55.79
74680;BME280;63211;48.548;2.704;2023-11-22T12:34:54;102162.59;;;19.01;55.84
74680;BME280;63211;48.548;2.704;2023-11-22T12:37:21;102164.47;;;19.00;56.12
74680;BME280;63211;48.548;2.704;2023-11-22T12:39:49;102158.75;;;18.95;56.76
74680;BME280;63211;48.548;2.704;2023-11-22T12:42:17;102146.41;;;18.99;56.15
74680;BME280;63211;48.548;2.704;2023-11-22T12:44:47;102144.91;;;18.97;56.24
74680;BME280;63211;48.548;2.704;2023-11-22T12:47:14;102145.94;;;18.96;55.88
74680;BME280;63211;48.548;2.704;2023-11-22T12:49:44;102140.88;;;18.93;56.26
74680;BME280;63211;48.548;2.704;2023-11-22T12:52:11;102154.78;;;18.76;57.28